Time;durP1;ratioP1;P1;durP2;ratioP2;P2;SDS_P1;SDS_P2;PMS_P1;PMS_P2;Temp;Humidity;BMP_temperature;BMP_pressure;BME280_temperature;BME280_humidity;BME280_pressure;Samples;Min_cycle;Max_cycle;Signal;HPM_P1;HPM_P2
2023/01/06 00:01:04;;;;;;;;;1.00;1.00;;;;;12.79;68.19;101758.06;5060043;28;45341;-60
2023/01/06 00:03:29;;;;;;;;;2.50;1.75;;;;;12.77;68.31;101757.22;5059953;28;45232;-60
2023/01/06 00:06:02;;;;;;;;;1.00;1.00;;;;;12.79;67.84;101756.31;5059481;28;46060;-60
2023/01/06 00:08:28;;;;;;;;;2.00;1.00;;;;;12.78;68.24;101756.28;5075427;28;45447;-60
2023/01/06 00:10:53;;;;;;;;;2.00;2.00;;;;;12.77;68.22;101752.78;5075408;28;45283;-60
2023/01/06 00:13:19;;;;;;;;;2.25;1.00;;;;;12.74;67.98;101749.31;5059761;28;45397;-60
2023/01/06 00:15:44;;;;;;;;;1.00;1.00;;;;;12.71;68.17;101746.69;5059738;28;45250;-60
2023/01/06 00:18:09;;;;;;;;;2.00;1.25;;;;;12.74;67.93;101742.28;5059754;28;45229;-60
2023/01/06 00:20:35;;;;;;;;;3.25;1.25;;;;;12.72;68.19;101743.19;5058422;28;45433;-60
2023/01/06 00:23:00;;;;;;;;;2.00;2.00;;;;;12.73;67.93;101743.16;5059657;28;45249;-60
2023/01/06 00:25:25;;;;;;;;;0.00;0.00;;;;;12.69;68.06;101741.41;5075352;28;47154;-60
2023/01/06 00:27:51;;;;;;;;;2.00;2.00;;;;;12.68;68.12;101748.47;5059425;28;45375;-60
2023/01/06 00:30:16;;;;;;;;;1.00;1.00;;;;;12.69;68.20;101746.69;5059935;28;45318;-60
2023/01/06 00:32:41;;;;;;;;;2.25;1.00;;;;;12.67;67.97;101743.22;5059617;28;45465;-60
2023/01/06 00:35:07;;;;;;;;;1.00;1.00;;;;;12.65;68.06;101753.78;5059484;28;46076;-60
2023/01/06 00:37:32;;;;;;;;;2.50;1.25;;;;;12.66;68.02;101752.00;5057960;28;45366;-60
2023/01/06 00:39:58;;;;;;;;;1.00;1.00;;;;;12.66;67.80;101755.50;5059529;28;45213;-60
2023/01/06 00:42:23;;;;;;;;;1.00;1.00;;;;;12.67;68.02;101757.25;5058149;28;45494;-60
2023/01/06 00:44:49;;;;;;;;;2.50;1.00;;;;;12.67;67.65;101751.97;5059158;28;46297;-61
2023/01/06 00:47:15;;;;;;;;;0.25;0.25;;;;;12.65;68.12;101755.50;5059523;28;45265;-60
2023/01/06 00:49:40;;;;;;;;;0.75;0.75;;;;;12.66;67.81;101762.53;5059389;28;45516;-60
2023/01/06 00:52:06;;;;;;;;;1.00;1.00;;;;;12.65;68.12;101771.34;5059015;28;45386;-60
2023/01/06 00:54:31;;;;;;;;;2.25;1.25;;;;;12.63;68.19;101768.72;5059330;28;46077;-60
2023/01/06 00:56:57;;;;;;;;;1.00;1.00;;;;;12.63;67.86;101773.13;5059198;28;45382;-60
2023/01/06 00:59:24;;;;;;;;;1.75;1.75;;;;;12.63;67.92;101779.28;5059417;28;45335;-60
2023/01/06 01:01:51;;;;;;;;;0.00;0.00;;;;;12.61;68.04;101770.47;5061931;28;45236;-60
2023/01/06 01:04:17;;;;;;;;;3.00;2.00;;;;;12.64;68.00;101769.59;5062131;28;46156;-60
2023/01/06 01:06:44;;;;;;;;;2.00;2.00;;;;;12.59;68.34;101776.66;5062440;28;45299;-60
2023/01/06 01:09:13;;;;;;;;;1.00;1.00;;;;;12.61;68.04;101775.75;5062620;28;45316;-60
2023/01/06 01:14:23;;;;;;;;;1.00;1.00;;;;;12.63;68.63;101776.63;5062463;28;45861;-60
2023/01/06 01:16:48;;;;;;;;;2.00;2.00;;;;;12.62;67.94;101774.88;5062187;28;45427;-60
2023/01/06 01:19:14;;;;;;;;;2.00;0.00;;;;;12.62;67.87;101777.50;5062790;28;45351;-60
2023/01/06 01:21:40;;;;;;;;;2.25;1.00;;;;;12.64;68.36;101770.47;5062103;28;45572;-60
2023/01/06 01:24:05;;;;;;;;;2.00;2.00;;;;;12.62;67.99;101756.41;5062318;28;46245;-60
2023/01/06 01:26:31;;;;;;;;;0.75;0.75;;;;;12.58;68.28;101764.34;5061012;28;45247;-60
2023/01/06 01:28:56;;;;;;;;;1.50;1.00;;;;;12.58;68.35;101754.69;5062279;28;45317;-60
2023/01/06 01:31:21;;;;;;;;;3.25;2.00;;;;;12.58;68.19;101751.16;5062162;28;45439;-60
2023/01/06 01:33:48;;;;;;;;;2.00;1.00;;;;;12.57;68.09;101744.16;5062196;28;45567;-60
2023/01/06 01:36:15;;;;;;;;;1.25;0.50;;;;;12.46;68.30;101749.50;5060683;28;45411;-60
2023/01/06 01:38:41;;;;;;;;;0.00;0.00;;;;;12.46;68.57;101742.44;5062146;28;45320;-60
2023/01/06 01:41:06;;;;;;;;;1.00;1.00;;;;;12.54;68.30;101746.81;5077440;28;45410;-61
2023/01/06 01:44:02;;;;;;;;;1.00;1.00;;;;;12.52;68.09;101745.03;5061852;28;45501;-61
2023/01/06 01:46:36;;;;;;;;;1.00;1.00;;;;;12.52;68.00;101745.03;5049436;28;45288;-60
2023/01/06 01:49:13;;;;;;;;;0.25;0.25;;;;;12.49;68.26;101731.91;5062053;28;45473;-60
2023/01/06 01:51:42;;;;;;;;;0.00;0.00;;;;;12.48;68.35;101743.31;5061672;28;45306;-60
2023/01/06 01:54:12;;;;;;;;;3.00;2.00;;;;;12.45;68.49;101747.72;5061518;28;45401;-60
2023/01/06 01:56:44;;;;;;;;;1.00;1.00;;;;;12.46;68.37;101739.81;5061764;28;45385;-60
2023/01/06 01:59:15;;;;;;;;;0.50;0.50;;;;;12.46;68.59;101737.16;5061847;28;45330;-60
2023/01/06 02:01:41;;;;;;;;;1.00;1.00;;;;;12.39;68.45;101731.94;5061662;28;46702;-60
2023/01/06 02:04:08;;;;;;;;;0.00;0.00;;;;;12.45;68.59;101734.56;5061415;28;45313;-60
2023/01/06 02:06:34;;;;;;;;;3.75;1.50;;;;;12.48;68.63;101734.56;5061555;28;45334;-60
2023/01/06 02:09:02;;;;;;;;;0.00;0.00;;;;;12.42;68.59;101743.34;5061844;28;45415;-60
2023/01/06 02:11:31;;;;;;;;;1.00;1.00;;;;;12.47;68.47;101740.69;5061708;28;45313;-60
2023/01/06 02:14:11;;;;;;;;;1.00;1.00;;;;;12.45;68.50;101745.09;5061237;28;45438;-60
2023/01/06 02:16:46;;;;;;;;;0.00;0.00;;;;;12.45;68.61;101750.38;5059403;28;45978;-60
2023/01/06 02:19:39;;;;;;;;;2.00;0.25;;;;;12.45;68.68;101748.63;5061696;28;45489;-60
2023/01/06 02:22:38;;;;;;;;;1.50;1.50;;;;;12.44;68.43;101746.88;5061212;28;45323;-60
2023/01/06 02:25:55;;;;;;;;;0.75;0.00;;;;;12.39;68.59;101740.75;5061155;28;45500;-60
2023/01/06 02:28:45;;;;;;;;;1.00;1.00;;;;;12.38;68.67;101736.34;5061087;28;45289;-60
2023/01/06 02:31:53;;;;;;;;;1.00;0.50;;;;;12.38;68.80;101727.56;5061279;28;45359;-60
2023/01/06 02:34:27;;;;;;;;;0.00;0.00;;;;;12.39;68.87;101732.84;5061315;28;45269;-60
2023/01/06 02:37:17;;;;;;;;;2.00;1.00;;;;;12.38;68.68;101730.19;5060910;28;45314;-60
2023/01/06 02:40:01;;;;;;;;;0.00;0.00;;;;;12.39;68.56;101740.75;5061028;28;45300;-60
2023/01/06 02:42:43;;;;;;;;;1.75;1.75;;;;;12.35;69.11;101726.72;5061092;28;45781;-60
2023/01/06 02:45:41;;;;;;;;;1.75;1.00;;;;;12.33;69.28;101728.47;5060962;28;45252;-60
2023/01/06 02:48:54;;;;;;;;;1.00;0.00;;;;;12.36;69.01;101732.84;5061064;28;45275;-60
2023/01/06 02:51:42;;;;;;;;;1.00;1.00;;;;;12.35;69.25;101729.34;5054935;28;45539;-60
2023/01/06 02:54:18;;;;;;;;;0.00;0.00;;;;;12.34;69.11;101719.69;5060763;28;45246;-60
2023/01/06 02:56:53;;;;;;;;;1.00;1.00;;;;;12.28;68.90;101716.22;5060648;28;45443;-60
2023/01/06 02:59:28;;;;;;;;;1.00;1.00;;;;;12.28;69.29;101698.63;5060643;28;46182;-60
2023/01/06 03:01:55;;;;;;;;;1.00;1.00;;;;;12.21;69.16;101703.94;5060789;28;45493;-60
2023/01/06 03:04:34;;;;;;;;;1.50;0.50;;;;;12.21;69.38;101706.59;5060791;28;45400;-61
2023/01/06 03:07:02;;;;;;;;;1.00;0.00;;;;;12.23;69.05;101681.13;5060439;28;45480;-60
2023/01/06 03:09:35;;;;;;;;;1.25;1.25;;;;;12.26;69.20;101692.47;5060543;28;46477;-60
2023/01/06 03:12:07;;;;;;;;;1.00;1.00;;;;;12.28;69.04;101681.97;5060464;28;45355;-60
2023/01/06 03:14:40;;;;;;;;;0.50;0.50;;;;;12.28;68.98;101682.81;5060844;28;45358;-60
2023/01/06 03:17:06;;;;;;;;;2.00;1.50;;;;;12.24;68.99;101674.94;5060104;28;45316;-60
2023/01/06 03:19:32;;;;;;;;;1.25;0.00;;;;;12.27;69.27;101675.78;5060540;28;45501;-60
2023/01/06 03:21:59;;;;;;;;;1.50;0.50;;;;;12.26;69.24;101681.94;5060101;28;45303;-60
2023/01/06 03:24:25;;;;;;;;;2.00;2.00;;;;;12.23;68.92;101679.34;5059866;28;45304;-60
2023/01/06 03:26:52;;;;;;;;;1.75;0.75;;;;;12.21;69.13;101677.59;5060038;28;45228;-60
2023/01/06 03:29:19;;;;;;;;;0.00;0.00;;;;;12.22;69.15;101682.00;5060535;28;45332;-60
2023/01/06 03:31:47;;;;;;;;;1.00;1.00;;;;;12.19;69.20;101683.75;5059987;28;45363;-59
2023/01/06 03:34:25;;;;;;;;;0.00;0.00;;;;;12.19;68.94;101674.97;5060531;28;45335;-60
2023/01/06 03:37:20;;;;;;;;;1.00;0.00;;;;;12.13;69.24;101685.56;5059992;28;45319;-60
2023/01/06 03:39:57;;;;;;;;;1.00;0.00;;;;;12.19;69.11;101696.06;5060050;28;46401;-60
2023/01/06 03:45:28;;;;;;;;;1.00;1.00;;;;;12.25;69.01;101693.41;5060365;28;45445;-60
2023/01/06 03:48:09;;;;;;;;;1.00;1.00;;;;;12.25;69.07;101688.13;5060007;28;45492;-60
2023/01/06 03:50:41;;;;;;;;;1.00;0.50;;;;;12.28;68.94;101679.31;5059687;28;45229;-60
2023/01/06 03:53:16;;;;;;;;;0.50;0.50;;;;;12.26;69.15;101683.72;5059863;28;45329;-59
2023/01/06 03:55:46;;;;;;;;;0.00;0.00;;;;;12.18;69.25;101684.63;5075702;28;45338;-60
2023/01/06 03:58:15;;;;;;;;;0.00;0.00;;;;;12.21;69.13;101677.59;5075537;28;46119;-60
2023/01/06 04:00:41;;;;;;;;;0.00;0.00;;;;;12.20;69.31;101684.66;5059756;28;45390;-60
2023/01/06 04:03:12;;;;;;;;;0.00;0.00;;;;;12.19;69.31;101672.34;5059814;28;45284;-60
2023/01/06 04:05:38;;;;;;;;;1.00;0.00;;;;;12.21;69.15;101675.81;5059854;28;45236;-59
2023/01/06 04:08:03;;;;;;;;;1.00;1.00;;;;;12.25;69.10;101676.69;5060056;28;45208;-60
2023/01/06 04:10:29;;;;;;;;;2.00;1.00;;;;;12.22;69.10;101671.44;5075267;28;46392;-60
2023/01/06 04:12:54;;;;;;;;;0.00;0.00;;;;;12.22;69.24;101667.03;5058472;28;45417;-59
2023/01/06 04:15:23;;;;;;;;;1.00;1.00;;;;;12.21;69.19;101662.66;5059734;28;45312;-60
2023/01/06 04:17:49;;;;;;;;;0.75;0.75;;;;;12.22;69.12;101669.69;5059928;28;45496;-59
2023/01/06 04:20:18;;;;;;;;;0.25;0.25;;;;;12.19;69.22;101670.56;5059234;28;45411;-60
2023/01/06 04:22:43;;;;;;;;;0.00;0.00;;;;;12.21;69.10;101665.28;5059726;28;45324;-60
2023/01/06 04:25:09;;;;;;;;;1.00;0.00;;;;;12.19;69.37;101667.94;5059667;28;45498;-60
2023/01/06 04:27:35;;;;;;;;;0.00;0.00;;;;;12.15;69.32;101667.94;5059533;28;45336;-61
2023/01/06 04:30:00;;;;;;;;;0.00;0.00;;;;;12.15;69.39;101654.78;5059382;28;46088;-60
2023/01/06 04:32:25;;;;;;;;;0.50;0.00;;;;;12.18;69.48;101646.88;5059708;28;45314;-61
2023/01/06 04:34:51;;;;;;;;;0.00;0.00;;;;;12.20;69.23;101660.94;5059644;28;45617;-60
2023/01/06 04:37:16;;;;;;;;;0.00;0.00;;;;;12.15;69.37;101657.41;5062896;28;45358;-60
2023/01/06 04:39:42;;;;;;;;;0.00;0.00;;;;;12.13;69.54;101661.84;5062782;28;46170;-60
2023/01/06 04:42:07;;;;;;;;;1.00;1.00;;;;;12.14;69.27;101650.41;5062962;28;45313;-60
2023/01/06 04:44:33;;;;;;;;;2.00;1.00;;;;;12.17;69.61;101653.03;5062878;28;45279;-60
2023/01/06 04:46:58;;;;;;;;;1.00;1.00;;;;;12.17;69.41;101653.03;5062962;28;45347;-60
2023/01/06 04:49:23;;;;;;;;;0.00;0.00;;;;;12.21;69.51;101657.38;5062759;28;46119;-60
2023/01/06 04:51:49;;;;;;;;;0.00;0.00;;;;;12.18;69.53;101645.09;5061274;28;45933;-60
2023/01/06 04:54:15;;;;;;;;;4.50;4.50;;;;;12.18;69.39;101636.34;5062715;28;45286;-62
2023/01/06 04:56:40;;;;;;;;;0.00;0.00;;;;;12.17;69.40;101629.31;5062688;28;45410;-60
2023/01/06 04:59:05;;;;;;;;;0.25;0.25;;;;;12.13;69.30;101627.59;5061202;28;46246;-60
2023/01/06 05:01:31;;;;;;;;;0.00;0.00;;;;;12.19;69.53;101624.91;5062769;28;45256;-61
2023/01/06 05:03:56;;;;;;;;;0.00;0.00;;;;;12.18;69.54;101623.16;5062765;28;45477;-60
2023/01/06 05:06:21;;;;;;;;;0.00;0.00;;;;;12.20;69.35;101637.22;5062338;28;45379;-62
2023/01/06 05:08:47;;;;;;;;;0.00;0.00;;;;;12.17;69.31;101622.25;5062423;28;47113;-60
2023/01/06 05:11:13;;;;;;;;;1.50;0.75;;;;;12.17;69.73;101631.94;5062643;28;45211;-60
2023/01/06 05:13:39;;;;;;;;;1.00;1.00;;;;;12.14;69.46;101624.94;5061225;28;45320;-60
2023/01/06 05:16:26;;;;;;;;;2.00;1.00;;;;;12.24;69.55;101633.66;5078028;28;45343;-60
2023/01/06 05:18:53;;;;;;;;;1.00;1.00;;;;;12.23;69.48;101631.91;5049087;28;45324;-60
2023/01/06 05:21:19;;;;;;;;;2.00;2.00;;;;;12.21;69.46;101623.13;5060520;28;45188;-60
2023/01/06 05:23:44;;;;;;;;;1.00;1.00;;;;;12.22;69.48;101624.03;5062366;28;45275;-60
2023/01/06 05:26:19;;;;;;;;;1.75;1.00;;;;;12.22;69.49;101630.16;5062122;28;45352;-60
2023/01/06 05:28:44;;;;;;;;;0.25;0.25;;;;;12.22;69.75;101632.78;5062218;28;46101;-60
2023/01/06 05:31:10;;;;;;;;;1.00;1.00;;;;;12.19;69.71;101628.41;5061930;28;45469;-60
2023/01/06 05:33:35;;;;;;;;;2.00;0.25;;;;;12.16;69.59;101635.47;5062375;28;45161;-60
2023/01/06 05:36:07;;;;;;;;;0.00;0.00;;;;;12.18;69.99;101641.59;5060659;28;45368;-60
2023/01/06 05:38:32;;;;;;;;;0.50;0.50;;;;;12.19;69.82;101638.09;5062088;28;46394;-60
2023/01/06 05:40:58;;;;;;;;;0.00;0.00;;;;;12.21;69.86;101649.47;5061902;28;45446;-59
2023/01/06 05:43:24;;;;;;;;;1.50;1.50;;;;;12.23;69.60;101650.34;5062101;28;45361;-60
2023/01/06 05:45:49;;;;;;;;;2.00;0.25;;;;;12.22;69.73;101648.59;5061823;28;45402;-59
2023/01/06 05:48:15;;;;;;;;;0.00;0.00;;;;;12.24;69.82;101654.75;5061603;28;46082;-59
2023/01/06 05:50:40;;;;;;;;;0.00;0.00;;;;;12.25;69.92;101661.78;5061729;28;45381;-60
2023/01/06 05:53:06;;;;;;;;;1.00;1.00;;;;;12.27;69.46;101669.66;5061705;28;45166;-60
2023/01/06 05:55:31;;;;;;;;;1.00;0.00;;;;;12.28;69.91;101671.41;5060395;28;45249;-60
2023/01/06 05:57:56;;;;;;;;;2.50;2.50;;;;;12.27;69.93;101665.25;5060257;28;46990;-60
2023/01/06 06:00:22;;;;;;;;;0.50;0.50;;;;;12.26;69.60;101662.63;5061771;28;45229;-60
2023/01/06 06:02:47;;;;;;;;;1.00;1.00;;;;;12.28;69.92;101674.06;5061799;28;45238;-60
2023/01/06 06:05:12;;;;;;;;;1.00;1.00;;;;;12.27;69.79;101675.78;5061366;28;45612;-60
2023/01/06 06:07:38;;;;;;;;;2.75;2.00;;;;;12.23;69.80;101668.78;5061632;28;45284;-60
2023/01/06 06:10:04;;;;;;;;;1.00;0.75;;;;;12.25;69.86;101672.31;5061582;28;45236;-60
2023/01/06 06:12:29;;;;;;;;;1.00;1.00;;;;;12.29;70.05;101667.88;5061668;28;45466;-59
2023/01/06 06:14:55;;;;;;;;;2.00;1.00;;;;;12.31;69.78;101674.91;5061279;28;45347;-60
2023/01/06 06:17:20;;;;;;;;;1.00;1.00;;;;;12.28;70.07;101676.69;5061179;28;46289;-60
2023/01/06 06:19:45;;;;;;;;;2.00;2.00;;;;;12.25;70.06;101664.41;5061314;28;45302;-60
2023/01/06 06:22:11;;;;;;;;;0.75;0.75;;;;;12.22;70.26;101666.19;5061454;28;45330;-60
2023/01/06 06:24:36;;;;;;;;;1.00;1.00;;;;;12.25;70.27;101666.16;5061154;28;45398;-60
2023/01/06 06:27:02;;;;;;;;;1.00;1.00;;;;;12.26;69.87;101671.41;5061191;28;45751;-60
2023/01/06 06:29:27;;;;;;;;;1.75;1.00;;;;;12.28;69.77;101672.28;5061186;28;45319;-60
2023/01/06 06:31:53;;;;;;;;;2.00;2.00;;;;;12.34;70.15;101680.16;5061512;28;45250;-61
2023/01/06 06:34:18;;;;;;;;;1.00;1.00;;;;;12.34;69.63;101677.50;5061257;28;45319;-60
2023/01/06 06:36:43;;;;;;;;;3.00;3.00;;;;;12.35;69.73;101674.00;5060959;28;46253;-60
2023/01/06 06:39:09;;;;;;;;;2.00;2.00;;;;;12.39;69.97;101677.50;5061155;28;45323;-60
2023/01/06 06:41:34;;;;;;;;;3.00;2.00;;;;;12.39;69.80;101676.59;5061036;28;45473;-60
2023/01/06 06:44:00;;;;;;;;;2.25;2.25;;;;;12.40;69.68;101673.97;5061047;28;45251;-60
2023/01/06 06:46:25;;;;;;;;;2.75;2.00;;;;;12.41;69.98;101677.47;5060931;28;46321;-61
2023/01/06 06:48:51;;;;;;;;;1.00;1.00;;;;;12.38;69.72;101669.56;5061096;28;45223;-62
2023/01/06 06:51:18;;;;;;;;;2.25;2.00;;;;;12.40;70.02;101666.06;5060702;28;45241;-61
2023/01/06 06:53:44;;;;;;;;;3.00;1.00;;;;;12.42;69.83;101674.81;5060768;28;45232;-60
2023/01/06 06:56:11;;;;;;;;;3.25;2.00;;;;;12.41;70.07;101677.47;5060508;28;47046;-60
2023/01/06 06:58:37;;;;;;;;;2.00;2.00;;;;;12.33;69.95;101667.84;5075440;28;45360;-61
2023/01/06 07:01:13;;;;;;;;;2.00;1.00;;;;;12.33;69.99;101674.91;5059374;28;45271;-60
2023/01/06 07:03:38;;;;;;;;;1.00;1.00;;;;;12.38;70.13;101683.63;5060614;28;45320;-60
2023/01/06 07:06:06;;;;;;;;;2.00;2.00;;;;;12.40;69.72;101692.44;5048734;28;45742;-58
2023/01/06 07:08:32;;;;;;;;;1.50;0.50;;;;;12.39;69.68;101700.31;5075737;28;45283;-60
2023/01/06 07:10:58;;;;;;;;;1.25;1.25;;;;;12.34;69.94;101681.91;5060012;28;48401;-59
2023/01/06 07:13:23;;;;;;;;;2.00;1.00;;;;;12.33;70.08;101686.28;5058243;28;45587;-59
2023/01/06 07:15:48;;;;;;;;;2.00;1.25;;;;;12.40;69.81;101694.16;5058927;28;46510;-58
2023/01/06 07:18:14;;;;;;;;;5.00;4.00;;;;;12.38;70.03;101698.56;5060299;28;45598;-60
2023/01/06 07:20:39;;;;;;;;;4.00;3.50;;;;;12.39;69.97;101695.03;5058489;28;45443;-60
2023/01/06 07:23:05;;;;;;;;;2.50;2.50;;;;;12.39;70.16;101685.41;5059963;28;45425;-60
2023/01/06 07:25:31;;;;;;;;;15.00;10.75;;;;;12.40;69.86;101684.50;5074067;28;45483;-60
2023/01/06 07:28:06;;;;;;;;;3.50;3.25;;;;;12.40;69.85;101694.16;5060111;28;45604;-61
2023/01/06 07:30:32;;;;;;;;;2.25;2.25;;;;;12.43;70.34;101697.66;5056947;28;45408;-61
2023/01/06 07:32:57;;;;;;;;;4.75;4.75;;;;;12.41;70.16;101698.56;5059700;28;45446;-61
2023/01/06 07:35:22;;;;;;;;;3.50;3.00;;;;;12.37;70.58;101686.28;5059715;28;45619;-61
2023/01/06 07:37:48;;;;;;;;;4.00;4.00;;;;;12.44;69.93;101694.16;5060411;28;45337;-61
2023/01/06 07:40:14;;;;;;;;;3.50;3.50;;;;;12.40;70.25;101692.44;5060121;28;45453;-61
2023/01/06 07:42:41;;;;;;;;;3.25;3.25;;;;;12.31;70.18;101680.19;5060054;28;45459;-60
2023/01/06 07:45:08;;;;;;;;;3.75;2.75;;;;;12.39;70.21;101695.94;5059801;28;45248;-61
2023/01/06 07:47:33;;;;;;;;;5.25;3.50;;;;;12.42;70.25;101695.03;5060075;28;45256;-61
2023/01/06 07:49:58;;;;;;;;;4.75;4.75;;;;;12.35;70.21;101697.72;5059964;28;45227;-61
2023/01/06 07:52:24;;;;;;;;;3.00;3.00;;;;;12.37;69.95;101707.38;5059797;28;45488;-61
2023/01/06 07:54:53;;;;;;;;;4.00;3.00;;;;;12.37;70.28;101699.47;5059858;28;45248;-60
2023/01/06 07:57:18;;;;;;;;;4.00;3.00;;;;;12.30;70.43;101704.78;5059898;28;45587;-60
2023/01/06 07:59:43;;;;;;;;;2.75;2.75;;;;;12.31;70.47;101713.56;5059796;28;45261;-60
2023/01/06 08:02:10;;;;;;;;;3.50;3.50;;;;;12.34;70.06;101703.00;5060137;28;45396;-60
2023/01/06 08:04:35;;;;;;;;;4.00;4.00;;;;;12.32;70.13;101705.63;5058460;28;47050;-60
2023/01/06 08:07:00;;;;;;;;;2.25;2.25;;;;;12.39;70.35;101711.75;5063630;28;45410;-60
2023/01/06 08:09:26;;;;;;;;;3.00;2.75;;;;;12.39;70.27;101709.13;5063510;28;45698;-60
2023/01/06 08:11:52;;;;;;;;;4.00;4.00;;;;;12.42;70.22;101711.72;5061811;28;45279;-60
2023/01/06 08:14:17;;;;;;;;;4.75;3.25;;;;;12.44;70.42;101707.31;5063526;28;46931;-61
2023/01/06 08:16:43;;;;;;;;;4.00;4.00;;;;;12.45;70.40;101705.56;5065301;28;45154;-60
2023/01/06 08:19:08;;;;;;;;;3.00;3.00;;;;;12.42;70.37;101702.94;5066863;27;45434;-59
2023/01/06 08:21:34;;;;;;;;;4.75;3.00;;;;;12.45;70.27;101701.19;5063248;28;45204;-60
2023/01/06 08:23:59;;;;;;;;;4.00;4.00;;;;;12.50;70.39;101703.75;5063016;28;46150;-59
2023/01/06 08:26:24;;;;;;;;;4.25;4.00;;;;;12.46;69.90;101702.03;5061920;28;45356;-60
2023/01/06 08:28:52;;;;;;;;;3.00;3.00;;;;;12.45;70.23;101705.56;5063377;28;45484;-60
2023/01/06 08:31:19;;;;;;;;;3.75;2.75;;;;;12.43;70.23;101716.13;5063062;28;45300;-60
2023/01/06 08:33:45;;;;;;;;;3.00;2.50;;;;;12.39;70.51;101705.59;5062846;28;45316;-60
2023/01/06 08:36:14;;;;;;;;;5.25;3.75;;;;;12.39;70.49;101717.03;5061407;28;45281;-60
2023/01/06 08:38:39;;;;;;;;;3.25;3.25;;;;;12.40;70.32;101712.63;5078818;28;45509;-60
2023/01/06 08:41:05;;;;;;;;;3.00;3.00;;;;;12.44;70.36;101712.59;5061569;28;45401;-60
2023/01/06 08:43:31;;;;;;;;;2.50;2.25;;;;;12.49;70.34;101717.81;5062806;28;45338;-61
2023/01/06 08:46:01;;;;;;;;;3.00;3.00;;;;;12.45;70.50;101713.47;5062839;28;45275;-60
2023/01/06 08:48:28;;;;;;;;;3.00;3.00;;;;;12.33;70.61;101715.28;5062959;28;45156;-60
2023/01/06 08:50:53;;;;;;;;;4.25;3.50;;;;;12.41;70.47;101709.09;5061326;28;45247;-60
2023/01/06 08:53:19;;;;;;;;;3.50;3.50;;;;;12.42;70.61;101714.34;5077912;27;45429;-60
2023/01/06 08:55:45;;;;;;;;;6.50;6.50;;;;;12.44;70.78;101716.97;5078548;28;45374;-60
2023/01/06 08:58:10;;;;;;;;;3.50;1.00;;;;;12.49;70.55;101710.81;5062607;28;45348;-60
2023/01/06 09:00:40;;;;;;;;;3.75;3.25;;;;;12.52;70.37;101712.53;5062883;28;45433;-60
2023/01/06 09:03:05;;;;;;;;;3.50;3.00;;;;;12.55;70.32;101715.16;5062404;28;45378;-59
2023/01/06 09:05:31;;;;;;;;;3.00;3.00;;;;;12.57;70.39;101716.03;5062041;28;45301;-60
2023/01/06 09:07:57;;;;;;;;;4.75;4.75;;;;;12.60;70.17;101725.66;5062674;28;45321;-60
2023/01/06 09:10:23;;;;;;;;;4.25;4.25;;;;;12.57;70.16;101718.66;5061066;28;45170;-60
2023/01/06 09:12:49;;;;;;;;;3.50;3.50;;;;;12.56;70.35;101724.81;5060987;28;46547;-59
2023/01/06 09:15:14;;;;;;;;;4.75;3.00;;;;;12.58;70.23;101730.97;5061010;28;45400;-60
2023/01/06 09:17:40;;;;;;;;;3.25;3.25;;;;;12.60;70.58;101723.94;5062735;28;45337;-60
2023/01/06 09:20:06;;;;;;;;;5.75;4.00;;;;;12.56;70.24;101735.34;5062176;28;45422;-60
2023/01/06 09:22:31;;;;;;;;;4.75;4.75;;;;;12.58;70.49;101723.06;5059847;28;45875;-60
2023/01/06 09:24:57;;;;;;;;;6.50;6.25;;;;;12.59;70.67;101727.44;5062178;28;45366;-60
2023/01/06 09:27:22;;;;;;;;;7.50;4.00;;;;;12.59;70.58;101729.19;5062478;28;45354;-60
2023/01/06 09:29:48;;;;;;;;;7.50;5.25;;;;;12.58;70.46;101727.44;5062301;28;45296;-60
2023/01/06 09:32:14;;;;;;;;;4.50;4.50;;;;;12.58;70.50;101717.78;5062083;28;45324;-60
2023/01/06 09:34:39;;;;;;;;;6.25;5.25;;;;;12.58;70.63;101730.06;5062059;28;45257;-60
2023/01/06 09:37:05;;;;;;;;;5.25;5.25;;;;;12.59;70.48;101729.19;5062222;28;45323;-59
2023/01/06 09:39:30;;;;;;;;;5.75;4.75;;;;;12.60;70.63;101725.66;5062057;28;45473;-60
2023/01/06 09:42:23;;;;;;;;;4.75;2.75;;;;;12.61;70.73;101738.84;5062034;28;45386;-60
2023/01/06 09:44:54;;;;;;;;;6.00;5.75;;;;;12.62;70.85;101740.59;5060510;28;45477;-59
2023/01/06 09:47:27;;;;;;;;;6.00;6.00;;;;;12.62;70.80;101735.31;5077765;28;45758;-60
2023/01/06 09:50:00;;;;;;;;;7.00;6.00;;;;;12.67;70.79;101733.53;5062010;28;45239;-60
2023/01/06 09:52:35;;;;;;;;;7.75;6.25;;;;;12.68;70.86;101734.41;5061695;28;45482;-59
2023/01/06 09:55:10;;;;;;;;;8.00;7.00;;;;;12.65;70.60;101734.41;5061903;28;45232;-60
2023/01/06 09:57:49;;;;;;;;;8.75;6.25;;;;;12.69;70.47;101736.13;5061639;28;45303;-60
2023/01/06 10:00:33;;;;;;;;;7.00;6.50;;;;;12.75;70.67;101737.88;5061728;28;45457;-60
2023/01/06 10:02:58;;;;;;;;;6.75;6.75;;;;;12.75;70.82;101744.00;5061674;28;46176;-60
2023/01/06 10:05:51;;;;;;;;;8.00;6.00;;;;;12.73;70.84;101743.16;5061126;28;45171;-59
2023/01/06 10:08:28;;;;;;;;;6.00;6.00;;;;;12.71;70.55;101734.38;5060480;28;45224;-59
2023/01/06 10:11:25;;;;;;;;;6.50;6.00;;;;;12.72;70.60;101735.28;5061539;28;45229;-60
2023/01/06 10:14:12;;;;;;;;;6.50;5.00;;;;;12.72;70.58;101740.56;5077118;28;48013;-60
2023/01/06 10:16:53;;;;;;;;;8.25;8.00;;;;;12.74;71.11;101734.38;5060130;28;45288;-60
2023/01/06 10:19:30;;;;;;;;;8.00;5.50;;;;;12.77;70.84;101738.75;5061643;28;45228;-60
2023/01/06 10:22:04;;;;;;;;;6.00;6.00;;;;;12.74;70.56;101742.28;5059655;28;45548;-60
2023/01/06 10:24:44;;;;;;;;;4.00;4.00;;;;;12.77;70.62;101738.75;5061320;28;45321;-60
2023/01/06 10:27:17;;;;;;;;;3.75;3.50;;;;;12.77;70.65;101746.66;5061604;28;45365;-60
2023/01/06 10:29:43;;;;;;;;;8.50;6.00;;;;;12.80;70.56;101734.31;5077034;28;45315;-59
2023/01/06 10:32:15;;;;;;;;;5.50;5.00;;;;;12.84;70.74;101724.59;5059793;28;45339;-60
2023/01/06 10:34:43;;;;;;;;;5.75;5.25;;;;;12.84;70.61;101722.84;5058903;28;46999;-60
2023/01/06 10:37:38;;;;;;;;;5.50;5.50;;;;;12.89;70.79;101733.34;5061050;28;45344;-60
2023/01/06 10:40:24;;;;;;;;;5.00;5.00;;;;;12.89;70.72;101737.75;5060017;28;45464;-60
2023/01/06 10:43:07;;;;;;;;;4.00;3.00;;;;;12.87;70.70;101729.88;5060875;28;45240;-60
2023/01/06 10:45:45;;;;;;;;;5.25;4.00;;;;;12.90;70.44;101723.69;5076512;28;46344;-60
2023/01/06 10:48:20;;;;;;;;;4.50;4.50;;;;;12.90;70.39;101714.00;5076643;28;46007;-61
2023/01/06 10:50:46;;;;;;;;;4.00;3.50;;;;;12.94;70.57;101735.97;5076250;28;45280;-60
2023/01/06 10:53:13;;;;;;;;;3.25;3.25;;;;;12.96;70.54;101737.69;5060725;28;45281;-61
2023/01/06 10:55:46;;;;;;;;;5.00;5.00;;;;;12.92;70.70;101724.56;5060683;28;46241;-60
2023/01/06 10:58:36;;;;;;;;;4.25;4.00;;;;;12.93;70.98;101731.56;5060772;28;45320;-61
2023/01/06 11:01:21;;;;;;;;;5.00;4.25;;;;;12.95;70.59;101720.13;5060735;28;45393;-61
2023/01/06 11:04:08;;;;;;;;;4.25;4.25;;;;;12.96;70.38;101721.88;5060581;28;45303;-61
2023/01/06 11:06:35;;;;;;;;;6.00;6.00;;;;;12.98;70.17;101714.81;5055623;28;46829;-60
2023/01/06 11:09:21;;;;;;;;;5.50;5.50;;;;;12.98;70.33;101717.47;5057875;28;45271;-61
2023/01/06 11:11:48;;;;;;;;;4.75;4.75;;;;;12.93;70.65;101703.44;5060496;28;45266;-60
2023/01/06 11:14:19;;;;;;;;;7.75;6.50;;;;;12.98;70.79;101704.28;5060823;28;45593;-60
2023/01/06 11:17:02;;;;;;;;;6.00;6.00;;;;;12.98;70.46;101711.28;5060163;28;46309;-61
2023/01/06 11:19:41;;;;;;;;;5.75;5.00;;;;;12.97;70.84;101699.03;5060430;28;45267;-61
2023/01/06 11:22:29;;;;;;;;;8.00;6.50;;;;;13.01;70.93;101704.22;5060135;28;45383;-61
2023/01/06 11:24:54;;;;;;;;;5.00;4.75;;;;;13.07;70.39;101697.16;5060234;28;45506;-60
2023/01/06 11:27:20;;;;;;;;;9.25;7.00;;;;;13.10;70.92;101697.13;5060246;28;46060;-60
2023/01/06 11:29:45;;;;;;;;;7.50;7.50;;;;;13.05;70.82;101681.34;5058905;28;45399;-60
2023/01/06 11:32:22;;;;;;;;;7.50;5.50;;;;;13.14;70.62;101696.22;5060593;28;45339;-60
2023/01/06 11:34:54;;;;;;;;;6.00;6.00;;;;;13.19;70.34;101690.91;5060047;28;45406;-60
2023/01/06 11:37:37;;;;;;;;;9.75;7.00;;;;;13.21;70.83;101692.63;5060211;28;45915;-59
2023/01/06 11:40:18;;;;;;;;;6.25;6.25;;;;;13.24;70.66;101682.03;5060248;28;45270;-60
2023/01/06 11:42:51;;;;;;;;;8.75;6.75;;;;;13.30;70.64;101681.09;5060165;28;45322;-60